Kula, HI (96790)

5:04 PM HST on March 04, 2015 (GMT -1000)
Lower Kula | Change Station
CLOSE
Current Station
Personal Weather Station
Location: Kula, HI
Elevation: 2336 ft
Nearby Weather Stations
Active Advisory: Flash Flood Watch

Elev 2336 ft 20.76 °N, 156.34 °W | Updated 3 minutes ago

Cloudy
Cloudy
62.5 °F
Feels Like 62.5 °F
N
2.0
Wind Variable Wind from NNE
Gusts 7.0 mph

Today
High -- | Low -- °F
--% Chance of Precip.
Yesterday
High -- | Low -- °F
Precip. -- in
6:43 AM 6:31 PM
Full, 100% visible
Pressure 29.96 in
Visibility 10.0 miles
Clouds Scattered Clouds 8500 ft
Dew Point 61 °F
Humidity 94%
Rainfall 0.70 in
Snow Depth Not available.
UV out of 12
Pollen Not available.
Air Quality Not available.
Flu Activity Not available.
METAR PHNY 050156Z AUTO 07009KT 10SM -RA SCT085 19/19 A3000 RMK AO2 TSNO T01940188 RAE08B28 P0000 SLP144 $

More Conditions Fewer Conditions

Pressure 29.96 in
Visibility 10.0 miles
Clouds Scattered Clouds 8500 ft
Dew Point 61 °F
Humidity 94%
Rainfall 0.70 in
Snow Depth Not available.
UV out of 12
Pollen Not available.
Air Quality Not available.
Flu Activity Not available.
METAR PHNY 050156Z AUTO 07009KT 10SM -RA SCT085 19/19 A3000 RMK AO2 TSNO T01940188 RAE08B28 P0000 SLP144 $

More Conditions Fewer Conditions

10-Day Weather Forecast

Almanac

Astronomy

Mar. 04, 2015 Rise Set
Actual Time
Civil Twilight
Nautical Twilight
Astronomical Twilight
Moon
Length of Visible Light
Length of Day
Tomorrow will be .
, % of the Moon is Illuminated

Today's Extremes

State Highs State Lows

Community

WunderPhotos

Upload Photos

1,802,641 photos uploaded!

WunderBlogs® & News

Nearby

Air Quality

  Air Quality AQ Index Pollutant
Not available.

Snow Depth

Station Depth Elevation

Earthquake Activity

City Distance Mag. Time & Date
Minimum magnitude displayed is 2.5.

Coastal Water Temperatures

Place Temperature

Nearby Weather Stations

Flash Flood Watch
Statement as of 3:39 PM HST on March 04, 2015

... Flash Flood Watch remains in effect until 6 am HST Thursday...

The Flash Flood Watch continues for

* Maui and The Big Island.

* Until 6 am HST Thursday.

* Heavy rain will bring the threat for flash flooding on Maui
and The Big Island.

* The highest threat will be on the windward sides of Maui and
The Big Island where the trade-wind flow will focus the
showers. Excessive runoff may result in rock and mudslides in
steep terrain. Fast moving waters may create life threatening
situations.

Precautionary/preparedness actions...

Avoid camping or hiking near streams and low lying areas. Monitor
the latest forecasts and be prepared to take immediate action if
heavy rain occurs or flash flood warnings are issued. Remember
that it does not have to be raining where you are for flash
flooding to occur.